Terminal Aerodrome Forecast
Issued by NWS

Home | Current Version | Previous Version | Text Only | Print | Product List | Glossary On
Versions: 1 2 3 4 5 6 7 8 9 10 11 12
000
FTUS42 TJSJ 020010 RRA
TAFJBQ
TAF
TJBQ 020010Z 0200/0224 09008KT P6SM VCSH SCT025 BKN050 BKN100
      TEMPO 0200/0202 VRB12G20KT 5SM -TSRA BKN025CB OVC030
     FM020230 10006KT P6SM -RA FEW025 SCT050 SCT120
     FM021430 07015KT P6SM FEW030 SCT050
      AMD NOT SKED 0202/0211=

USA.gov is the U.S. government's official web portal to all federal, state and local government web resources and services.